createdAt,value
2018-06-24T00:00:05.309Z,2.30
2018-06-24T00:02:32.865Z,2.17
2018-06-24T00:05:00.044Z,1.87
2018-06-24T00:07:27.282Z,1.83
2018-06-24T00:09:54.497Z,1.83
2018-06-24T00:12:21.697Z,1.73
2018-06-24T00:14:48.889Z,1.60
2018-06-24T00:17:16.082Z,2.00
2018-06-24T00:19:43.267Z,1.80
2018-06-24T00:22:10.464Z,1.53
2018-06-24T00:24:37.711Z,1.47
2018-06-24T00:27:04.938Z,2.13
2018-06-24T00:29:32.118Z,1.30
2018-06-24T00:31:59.765Z,1.90
2018-06-24T00:34:26.938Z,1.67
2018-06-24T00:36:54.168Z,1.83
2018-06-24T00:39:21.733Z,1.80
2018-06-24T00:41:48.969Z,1.57
2018-06-24T00:44:16.197Z,1.70
2018-06-24T00:46:43.417Z,1.73
2018-06-24T00:49:10.658Z,1.67
2018-06-24T00:51:37.859Z,2.00
2018-06-24T00:54:05.074Z,1.73
2018-06-24T00:56:32.279Z,1.73
2018-06-24T00:58:59.527Z,2.13
2018-06-24T01:01:27.177Z,1.87
2018-06-24T01:03:54.426Z,1.80
2018-06-24T01:06:21.774Z,1.80
2018-06-24T01:08:48.968Z,1.80
2018-06-24T01:11:16.177Z,1.83
2018-06-24T01:13:43.397Z,1.70
2018-06-24T01:16:13.174Z,1.60
2018-06-24T01:18:40.417Z,1.87
2018-06-24T01:21:07.938Z,1.70
2018-06-24T01:23:35.552Z,1.87
2018-06-24T01:26:02.812Z,1.90
2018-06-24T01:28:30.056Z,2.27
2018-06-24T01:30:57.259Z,1.67
2018-06-24T01:33:24.479Z,1.67
2018-06-24T01:35:51.686Z,1.80
2018-06-24T01:38:19.207Z,1.40
2018-06-24T01:40:46.417Z,2.17
2018-06-24T01:43:13.636Z,1.80
2018-06-24T01:45:41.180Z,1.90
2018-06-24T01:48:08.377Z,1.90
2018-06-24T01:50:35.603Z,2.00
2018-06-24T01:53:02.848Z,1.90
2018-06-24T01:55:30.027Z,2.03
2018-06-24T01:57:57.213Z,1.83
2018-06-24T02:00:24.445Z,1.83
2018-06-24T02:02:51.678Z,1.37
2018-06-24T02:05:18.911Z,1.87
2018-06-24T02:07:46.113Z,1.47
2018-06-24T02:10:13.297Z,1.50
2018-06-24T02:12:40.494Z,1.93
2018-06-24T02:15:08.045Z,2.00
2018-06-24T02:17:35.246Z,1.50
2018-06-24T02:20:02.493Z,1.80
2018-06-24T02:22:30.041Z,2.50
2018-06-24T02:24:57.213Z,2.37
2018-06-24T02:27:24.549Z,1.97
2018-06-24T02:29:51.756Z,2.03
2018-06-24T02:32:18.982Z,1.87
2018-06-24T02:34:46.173Z,1.73
2018-06-24T02:37:13.378Z,1.60
2018-06-24T02:39:40.553Z,2.17
2018-06-24T02:42:07.780Z,1.97
2018-06-24T02:44:34.943Z,1.67
2018-06-24T02:47:02.152Z,1.87
2018-06-24T02:49:29.345Z,2.30
2018-06-24T02:51:56.568Z,1.93
2018-06-24T02:54:24.104Z,1.87
2018-06-24T02:56:51.324Z,2.00
2018-06-24T02:59:18.537Z,2.33
2018-06-24T03:01:45.751Z,1.77
2018-06-24T03:04:12.913Z,2.27
2018-06-24T03:06:40.078Z,1.87
2018-06-24T03:09:08.966Z,2.10
2018-06-24T03:11:36.170Z,1.83
2018-06-24T03:14:03.402Z,2.10
2018-06-24T03:16:34.946Z,1.30
2018-06-24T03:19:02.188Z,1.93
2018-06-24T03:21:29.406Z,1.60
2018-06-24T03:23:57.013Z,1.60
2018-06-24T03:26:24.221Z,1.60
2018-06-24T03:28:51.461Z,2.20
2018-06-24T03:31:18.996Z,1.50
2018-06-24T03:33:46.357Z,1.80
2018-06-24T03:36:13.557Z,2.10
2018-06-24T03:38:41.192Z,1.80
2018-06-24T03:41:08.367Z,2.17
2018-06-24T03:43:35.586Z,1.87
2018-06-24T03:46:02.822Z,1.57
2018-06-24T03:48:30.038Z,1.83
2018-06-24T03:50:57.678Z,1.97
2018-06-24T03:53:24.942Z,1.50
2018-06-24T03:55:52.262Z,1.93
2018-06-24T03:58:19.487Z,1.53
2018-06-24T04:00:46.700Z,1.73
2018-06-24T04:03:13.933Z,1.80
2018-06-24T04:05:41.211Z,2.10
2018-06-24T04:08:08.438Z,2.23
2018-06-24T04:10:37.678Z,1.50
2018-06-24T04:13:05.011Z,1.73
2018-06-24T04:15:32.237Z,2.93
2018-06-24T04:17:59.477Z,1.87
2018-06-24T04:20:26.727Z,2.20
2018-06-24T04:22:54.291Z,1.90
2018-06-24T04:25:21.533Z,1.60
2018-06-24T04:27:48.761Z,2.00
2018-06-24T04:30:16.366Z,2.37
2018-06-24T04:32:43.921Z,1.93
2018-06-24T04:35:11.106Z,2.63
2018-06-24T04:37:38.352Z,2.40
2018-06-24T04:40:05.625Z,2.40
2018-06-24T04:42:32.847Z,2.43
2018-06-24T04:45:00.426Z,2.43
2018-06-24T04:47:27.688Z,1.97
2018-06-24T04:49:54.922Z,2.67
2018-06-24T04:52:22.124Z,2.43
2018-06-24T04:54:49.326Z,2.40
2018-06-24T04:57:18.649Z,2.10
2018-06-24T04:59:45.865Z,2.60
2018-06-24T05:02:13.093Z,3.37
2018-06-24T05:04:40.629Z,2.33
2018-06-24T05:07:07.841Z,2.20
2018-06-24T05:09:35.090Z,1.80
2018-06-24T05:12:02.356Z,1.83
2018-06-24T05:14:29.582Z,1.50
2018-06-24T05:16:56.815Z,1.73
2018-06-24T05:19:24.404Z,1.83
2018-06-24T05:21:51.595Z,1.53
2018-06-24T05:24:18.829Z,2.10
2018-06-24T05:26:46.373Z,1.60
2018-06-24T05:29:13.622Z,1.60
2018-06-24T05:31:40.841Z,1.77
2018-06-24T05:34:08.320Z,1.67
2018-06-24T05:36:35.533Z,1.60
2018-06-24T05:39:04.385Z,1.80
2018-06-24T05:41:31.950Z,1.67
2018-06-24T05:43:59.181Z,1.97
2018-06-24T05:46:26.384Z,2.00
2018-06-24T05:48:54.097Z,0.90
2018-06-24T05:51:21.305Z,1.67
2018-06-24T05:53:48.544Z,1.40
2018-06-24T05:56:16.109Z,1.33
2018-06-24T05:58:43.385Z,1.30
2018-06-24T06:01:10.647Z,1.27
2018-06-24T06:03:38.300Z,1.67
2018-06-24T06:06:05.508Z,1.20
2018-06-24T06:08:32.720Z,1.47
2018-06-24T06:10:59.976Z,1.30
2018-06-24T06:13:27.233Z,1.70
2018-06-24T06:15:54.493Z,0.90
2018-06-24T06:18:25.845Z,1.23
2018-06-24T06:20:53.096Z,1.43
2018-06-24T06:23:20.668Z,1.00
2018-06-24T06:25:47.945Z,1.40
2018-06-24T06:28:15.186Z,1.40
2018-06-24T06:30:42.847Z,1.13
2018-06-24T06:33:10.088Z,1.27
2018-06-24T06:35:37.337Z,1.37
2018-06-24T06:38:04.868Z,1.70
2018-06-24T06:40:32.025Z,1.00
2018-06-24T06:42:59.189Z,1.10
2018-06-24T06:45:26.780Z,1.90
2018-06-24T06:47:53.831Z,1.17
2018-06-24T06:50:21.000Z,1.30
2018-06-24T06:52:48.171Z,1.60
2018-06-24T06:55:15.333Z,1.20
2018-06-24T06:57:42.775Z,1.13
2018-06-24T07:00:10.008Z,1.37
2018-06-24T07:02:37.138Z,1.50
2018-06-24T07:05:04.649Z,1.27
2018-06-24T07:07:31.881Z,1.40
2018-06-24T07:09:59.071Z,1.20
2018-06-24T07:12:26.233Z,0.80
2018-06-24T07:14:53.411Z,1.17
2018-06-24T07:17:20.629Z,1.40
2018-06-24T07:19:47.810Z,0.70
2018-06-24T07:22:15.025Z,0.90
2018-06-24T07:24:42.191Z,1.00
2018-06-24T07:27:09.357Z,0.90
2018-06-24T07:29:36.534Z,0.83
2018-06-24T07:32:03.747Z,0.90
2018-06-24T07:34:30.902Z,0.80
2018-06-24T07:36:58.077Z,1.13
2018-06-24T07:39:25.251Z,1.00
2018-06-24T07:41:52.377Z,0.83
2018-06-24T07:44:19.533Z,0.70
2018-06-24T07:46:46.738Z,0.90
2018-06-24T07:49:13.924Z,1.23
2018-06-24T07:51:41.106Z,0.90
2018-06-24T07:54:08.281Z,1.13
2018-06-24T07:56:35.443Z,0.80
2018-06-24T07:59:02.697Z,1.23
2018-06-24T08:01:29.898Z,1.20
2018-06-24T08:03:57.409Z,0.80
2018-06-24T08:06:24.581Z,1.00
2018-06-24T08:08:51.733Z,0.60
2018-06-24T08:11:19.355Z,0.83
2018-06-24T08:13:46.601Z,1.07
2018-06-24T08:16:13.769Z,1.00
2018-06-24T08:18:41.261Z,1.30
2018-06-24T08:21:08.449Z,0.97
2018-06-24T08:23:35.662Z,1.20
2018-06-24T08:26:02.837Z,0.97
2018-06-24T08:28:30.017Z,1.07
2018-06-24T08:30:57.958Z,1.03
2018-06-24T08:33:25.142Z,1.40
2018-06-24T08:35:52.363Z,0.97
2018-06-24T08:38:19.524Z,0.93
2018-06-24T08:40:46.709Z,1.30
2018-06-24T08:43:13.861Z,1.70
2018-06-24T08:45:41.073Z,1.20
2018-06-24T08:48:08.233Z,1.60
2018-06-24T08:50:35.393Z,1.20
2018-06-24T08:53:02.972Z,1.23
2018-06-24T08:55:30.133Z,1.57
2018-06-24T08:57:57.308Z,1.17
2018-06-24T09:00:28.843Z,1.00
2018-06-24T09:02:56.015Z,1.40
2018-06-24T09:05:23.241Z,1.10
2018-06-24T09:07:50.403Z,1.37
2018-06-24T09:10:17.582Z,1.17
2018-06-24T09:12:44.801Z,1.30
2018-06-24T09:15:11.993Z,1.50
2018-06-24T09:17:39.152Z,1.97
2018-06-24T09:20:06.324Z,1.23
2018-06-24T09:22:33.622Z,1.10
2018-06-24T09:25:00.805Z,2.20
2018-06-24T09:27:28.037Z,1.60
2018-06-24T09:29:59.220Z,1.17
2018-06-24T09:32:26.370Z,1.63
2018-06-24T09:34:53.551Z,1.50
2018-06-24T09:37:20.750Z,1.40
2018-06-24T09:39:47.905Z,1.37
2018-06-24T09:42:15.057Z,1.30
2018-06-24T09:44:42.219Z,1.47
2018-06-24T09:47:09.374Z,1.10
2018-06-24T09:49:36.972Z,1.20
2018-06-24T09:52:04.201Z,1.13
2018-06-24T09:54:31.377Z,1.47
2018-06-24T09:56:58.709Z,0.90
2018-06-24T09:59:25.861Z,1.10
2018-06-24T10:01:53.411Z,1.07
2018-06-24T10:04:20.921Z,1.07
2018-06-24T10:06:48.074Z,0.93
2018-06-24T10:09:15.229Z,0.93
2018-06-24T10:11:42.414Z,1.13
2018-06-24T10:14:09.649Z,1.27
2018-06-24T10:16:36.877Z,0.60
2018-06-24T10:19:04.059Z,0.90
2018-06-24T10:21:31.219Z,0.87
2018-06-24T10:23:58.383Z,0.67
2018-06-24T10:26:25.554Z,0.80
2018-06-24T10:28:52.724Z,1.00
2018-06-24T10:31:19.909Z,0.63
2018-06-24T10:33:47.082Z,0.60
2018-06-24T10:36:14.265Z,1.10
2018-06-24T10:38:42.001Z,1.47
2018-06-24T10:41:09.655Z,0.70
2018-06-24T10:43:36.833Z,0.60
2018-06-24T10:46:04.410Z,0.80
2018-06-24T10:48:31.565Z,1.00
2018-06-24T10:50:58.738Z,0.97
2018-06-24T10:53:26.282Z,0.87
2018-06-24T10:55:53.447Z,0.90
2018-06-24T10:58:20.629Z,1.33
2018-06-24T11:00:48.269Z,1.10
2018-06-24T11:03:15.437Z,0.60
2018-06-24T11:05:42.632Z,1.00
2018-06-24T11:08:11.873Z,0.87
2018-06-24T11:10:39.029Z,1.17
2018-06-24T11:13:06.223Z,0.80
2018-06-24T11:15:33.732Z,1.10
2018-06-24T11:18:00.931Z,1.20
2018-06-24T11:20:28.152Z,0.90
2018-06-24T11:22:55.353Z,1.37
2018-06-24T11:25:22.549Z,1.57
2018-06-24T11:27:49.729Z,0.80
2018-06-24T11:30:16.909Z,1.00
2018-06-24T11:32:44.058Z,1.20
2018-06-24T11:35:11.506Z,0.70
2018-06-24T11:37:38.694Z,1.07
2018-06-24T11:40:05.910Z,0.80
2018-06-24T11:42:33.073Z,1.07
2018-06-24T11:45:00.230Z,1.07
2018-06-24T11:47:27.406Z,2.13
2018-06-24T11:49:54.658Z,0.93
2018-06-24T11:52:21.811Z,0.90
2018-06-24T11:54:48.979Z,0.83
2018-06-24T11:59:55.987Z,1.20
2018-06-24T12:02:23.269Z,0.70
2018-06-24T12:04:50.402Z,1.10
2018-06-24T12:07:17.602Z,0.83
2018-06-24T12:09:44.812Z,0.70
2018-06-24T12:12:11.922Z,1.10
2018-06-24T12:14:39.129Z,0.87
2018-06-24T12:17:06.336Z,0.67
2018-06-24T12:19:33.814Z,0.60
2018-06-24T12:22:00.973Z,0.90
2018-06-24T12:24:28.121Z,0.73
2018-06-24T12:26:55.298Z,0.60
2018-06-24T12:29:22.481Z,0.60
2018-06-24T12:31:49.698Z,0.50
2018-06-24T12:34:17.154Z,0.77
2018-06-24T12:36:44.310Z,1.00
2018-06-24T12:39:13.589Z,0.50
2018-06-24T12:41:40.756Z,0.93
2018-06-24T12:44:08.810Z,0.47
2018-06-24T12:46:36.070Z,0.60
2018-06-24T12:49:03.583Z,0.63
2018-06-24T12:51:30.759Z,0.67
2018-06-24T12:53:57.964Z,0.53
2018-06-24T12:56:25.441Z,0.40
2018-06-24T12:58:52.695Z,0.60
2018-06-24T13:01:19.767Z,0.80
2018-06-24T13:03:46.963Z,0.73
2018-06-24T13:06:14.466Z,0.80
2018-06-24T13:08:41.653Z,0.70
2018-06-24T13:11:09.202Z,1.13
2018-06-24T13:13:36.353Z,0.73
2018-06-24T13:16:03.552Z,0.90
2018-06-24T13:18:30.727Z,0.70
2018-06-24T13:20:57.917Z,1.00
2018-06-24T13:23:25.072Z,0.57
2018-06-24T13:25:52.246Z,0.80
2018-06-24T13:28:19.408Z,0.70
2018-06-24T13:30:46.621Z,0.73
2018-06-24T13:33:13.801Z,0.70
2018-06-24T13:35:40.971Z,0.60
2018-06-24T13:38:08.117Z,0.97
2018-06-24T13:40:35.570Z,0.70
2018-06-24T13:43:02.753Z,0.90
2018-06-24T13:45:29.930Z,0.87
2018-06-24T13:47:57.107Z,0.60
2018-06-24T13:50:24.281Z,1.20
2018-06-24T13:52:51.425Z,0.80
2018-06-24T13:55:22.701Z,1.03
2018-06-24T13:57:49.858Z,0.90
2018-06-24T14:00:17.026Z,0.60
2018-06-24T14:02:44.187Z,0.67
2018-06-24T14:05:11.361Z,0.93
2018-06-24T14:07:38.557Z,1.43
2018-06-24T14:10:05.752Z,1.07
2018-06-24T14:12:32.972Z,1.60
2018-06-24T14:15:00.154Z,0.90
2018-06-24T14:17:27.717Z,1.03
2018-06-24T14:19:54.885Z,0.83
2018-06-24T14:22:22.049Z,1.00
2018-06-24T14:24:49.588Z,1.20
2018-06-24T14:27:16.745Z,1.30
2018-06-24T14:29:43.897Z,1.50
2018-06-24T14:32:11.336Z,0.67
2018-06-24T14:34:38.616Z,0.70
2018-06-24T14:37:05.792Z,0.63
2018-06-24T14:39:33.342Z,0.60
2018-06-24T14:42:00.502Z,0.90
2018-06-24T14:44:27.661Z,0.60
2018-06-24T14:46:54.833Z,0.77
2018-06-24T14:49:22.010Z,1.00
2018-06-24T14:51:49.177Z,0.97
2018-06-24T14:54:16.349Z,1.00
2018-06-24T14:56:43.505Z,1.27
2018-06-24T14:59:10.702Z,1.03
2018-06-24T15:01:37.928Z,1.03
2018-06-24T15:04:05.138Z,1.40
2018-06-24T15:06:32.333Z,0.60
2018-06-24T15:08:59.517Z,0.93
2018-06-24T15:11:26.984Z,0.60
2018-06-24T15:13:54.147Z,1.00
2018-06-24T15:16:21.326Z,0.53
2018-06-24T15:18:48.559Z,0.93
2018-06-24T15:21:15.714Z,0.70
2018-06-24T15:23:42.889Z,0.77
2018-06-24T15:26:10.426Z,0.60
2018-06-24T15:28:37.637Z,0.90
2018-06-24T15:31:05.141Z,0.70
2018-06-24T15:33:32.295Z,0.60
2018-06-24T15:36:05.593Z,0.90
2018-06-24T15:38:32.750Z,0.67
2018-06-24T15:40:59.970Z,0.83
2018-06-24T15:43:27.137Z,0.87
2018-06-24T15:45:54.295Z,0.67
2018-06-24T15:48:21.509Z,0.70
2018-06-24T15:50:48.677Z,0.50
2018-06-24T15:53:15.825Z,0.80
2018-06-24T15:55:43.020Z,1.27
2018-06-24T15:58:12.254Z,0.90
2018-06-24T16:00:39.423Z,0.93
2018-06-24T16:03:06.747Z,1.00
2018-06-24T16:05:33.932Z,1.10
2018-06-24T16:08:01.091Z,0.90
2018-06-24T16:10:28.328Z,1.00
2018-06-24T16:12:55.497Z,0.83
2018-06-24T16:15:22.673Z,0.73
2018-06-24T16:17:49.879Z,2.00
2018-06-24T16:20:21.164Z,0.90
2018-06-24T16:22:48.469Z,0.93
2018-06-24T16:25:15.650Z,1.00
2018-06-24T16:27:42.813Z,1.20
2018-06-24T16:30:09.989Z,1.10
2018-06-24T16:32:37.449Z,0.93
2018-06-24T16:35:04.607Z,0.93
2018-06-24T16:37:31.822Z,0.87
2018-06-24T16:39:59.020Z,1.10
2018-06-24T16:42:26.593Z,1.00
2018-06-24T16:44:53.746Z,1.10
2018-06-24T16:47:21.189Z,1.07
2018-06-24T16:49:48.390Z,1.03
2018-06-24T16:52:15.509Z,0.90
2018-06-24T16:54:42.678Z,1.20
2018-06-24T16:57:09.830Z,1.03
2018-06-24T16:59:37.093Z,0.90
2018-06-24T17:02:04.702Z,1.30
2018-06-24T17:04:31.862Z,1.10
2018-06-24T17:06:59.011Z,1.00
2018-06-24T17:09:26.187Z,0.90
2018-06-24T17:11:53.346Z,0.97
2018-06-24T17:14:20.525Z,1.23
2018-06-24T17:16:47.683Z,1.33
2018-06-24T17:19:14.912Z,1.10
2018-06-24T17:21:42.098Z,1.30
2018-06-24T17:24:09.245Z,1.23
2018-06-24T17:26:36.393Z,1.30
2018-06-24T17:29:07.657Z,1.10
2018-06-24T17:31:34.825Z,0.97
2018-06-24T17:34:02.038Z,1.00
2018-06-24T17:36:31.257Z,1.57
2018-06-24T17:38:58.409Z,2.40
2018-06-24T17:41:25.871Z,1.73
2018-06-24T17:43:53.050Z,1.40
2018-06-24T17:46:20.226Z,1.20
2018-06-24T17:48:47.633Z,1.50
2018-06-24T17:51:14.801Z,2.07
2018-06-24T17:53:42.010Z,1.67
2018-06-24T17:56:09.502Z,1.27
2018-06-24T17:58:36.650Z,1.50
2018-06-24T18:01:04.113Z,1.07
2018-06-24T18:03:31.293Z,1.10
2018-06-24T18:05:58.473Z,1.47
2018-06-24T18:08:25.651Z,1.10
2018-06-24T18:10:53.178Z,1.20
2018-06-24T18:13:20.361Z,1.20
2018-06-24T18:15:47.573Z,1.33
2018-06-24T18:18:14.777Z,1.80
2018-06-24T18:20:42.009Z,1.87
2018-06-24T18:23:09.214Z,1.53
2018-06-24T18:25:36.425Z,1.57
2018-06-24T18:28:03.656Z,1.20
2018-06-24T18:30:30.842Z,1.40
2018-06-24T18:32:58.081Z,1.00
2018-06-24T18:35:25.269Z,1.40
2018-06-24T18:37:52.481Z,1.37
2018-06-24T18:40:19.965Z,0.97
2018-06-24T18:42:47.176Z,0.97
2018-06-24T18:45:14.388Z,1.33
2018-06-24T18:47:41.545Z,1.00
2018-06-24T18:50:08.765Z,1.40
2018-06-24T18:52:35.958Z,1.47
2018-06-24T18:55:03.265Z,1.60
2018-06-24T18:57:30.453Z,1.20
2018-06-24T18:59:57.625Z,1.53
2018-06-24T19:02:25.130Z,1.10
2018-06-24T19:04:52.298Z,0.80
2018-06-24T19:07:19.476Z,1.43
2018-06-24T19:09:46.711Z,1.20
2018-06-24T19:12:13.861Z,1.10
2018-06-24T19:14:41.057Z,0.93
2018-06-24T19:17:08.625Z,1.57
2018-06-24T19:19:35.815Z,1.03
2018-06-24T19:22:03.026Z,1.40
2018-06-24T19:24:30.509Z,1.20
2018-06-24T19:26:57.823Z,1.13
2018-06-24T19:29:24.985Z,1.27
2018-06-24T19:31:52.477Z,1.10
2018-06-24T19:34:19.641Z,0.77
2018-06-24T19:36:46.808Z,1.50
2018-06-24T19:39:14.273Z,0.93
2018-06-24T19:41:41.797Z,1.53
2018-06-24T19:44:11.114Z,1.30
2018-06-24T19:46:38.329Z,1.00
2018-06-24T19:49:05.587Z,1.07
2018-06-24T19:51:32.798Z,1.37
2018-06-24T19:54:00.031Z,1.20
2018-06-24T19:56:27.252Z,1.23
2018-06-24T19:58:54.500Z,1.00
2018-06-24T20:01:21.690Z,1.00
2018-06-24T20:03:48.891Z,1.30
2018-06-24T20:06:16.150Z,1.73
2018-06-24T20:08:43.704Z,1.20
2018-06-24T20:11:11.035Z,0.80
2018-06-24T20:13:38.229Z,1.00
2018-06-24T20:16:05.542Z,1.00
2018-06-24T20:18:32.753Z,1.00
2018-06-24T20:21:00.284Z,1.27
2018-06-24T20:23:27.525Z,1.00
2018-06-24T20:25:54.809Z,1.60
2018-06-24T20:28:22.329Z,1.00
2018-06-24T20:30:49.563Z,1.27
2018-06-24T20:33:16.789Z,1.03
2018-06-24T20:35:44.361Z,1.23
2018-06-24T20:38:11.631Z,1.20
2018-06-24T20:40:38.886Z,1.10
2018-06-24T20:43:06.167Z,1.23
2018-06-24T20:45:33.365Z,1.30
2018-06-24T20:48:01.478Z,1.73
2018-06-24T20:50:28.729Z,1.07
2018-06-24T20:52:55.947Z,1.63
2018-06-24T20:55:23.178Z,1.20
2018-06-24T20:57:50.413Z,1.33
2018-06-24T21:00:17.614Z,1.63
2018-06-24T21:02:44.862Z,1.83
2018-06-24T21:05:12.201Z,1.40
2018-06-24T21:07:39.638Z,1.37
2018-06-24T21:10:06.827Z,1.27
2018-06-24T21:12:34.221Z,1.90
2018-06-24T21:15:01.589Z,1.70
